createdAt,value
2022-12-18T00:01:46.549Z,86.20
2022-12-18T00:04:20.592Z,84.20
2022-12-18T00:06:51.442Z,83.50
2022-12-18T00:09:22.700Z,83.20
2022-12-18T00:11:55.649Z,72.40
2022-12-18T00:14:28.042Z,79.90
2022-12-18T00:17:01.745Z,79.90
2022-12-18T00:22:01.770Z,73.40
2022-12-18T00:24:33.160Z,72.10
2022-12-18T00:27:04.876Z,73.60
2022-12-18T00:29:35.717Z,81.80
2022-12-18T00:32:06.699Z,75.20
2022-12-18T00:34:37.709Z,71.90
2022-12-18T00:37:08.341Z,74.60
2022-12-18T00:39:39.112Z,80.20
2022-12-18T00:42:28.018Z,77.40
2022-12-18T00:44:59.076Z,80.10
2022-12-18T00:47:29.720Z,78.60
2022-12-18T00:50:00.371Z,74.60
2022-12-18T00:52:31.366Z,75.30
2022-12-18T00:55:06.207Z,84.70
2022-12-18T00:57:37.489Z,82.90
2022-12-18T01:00:10.087Z,71.50
2022-12-18T01:02:41.019Z,71.80
2022-12-18T01:05:12.205Z,79.70
2022-12-18T01:07:42.964Z,67.10
2022-12-18T01:10:14.790Z,72.80
2022-12-18T01:12:45.536Z,66.90
2022-12-18T01:15:17.287Z,79.30
2022-12-18T01:17:48.019Z,78.20
2022-12-18T01:20:18.550Z,73.10
2022-12-18T01:22:50.051Z,68.00
2022-12-18T01:25:20.726Z,68.10
2022-12-18T01:27:51.536Z,78.30
2022-12-18T01:30:22.192Z,74.80
2022-12-18T01:32:52.953Z,79.20
2022-12-18T01:35:23.821Z,81.00
2022-12-18T01:37:57.684Z,67.50
2022-12-18T01:42:58.787Z,74.80
2022-12-18T01:45:31.945Z,74.60
2022-12-18T01:48:03.936Z,72.40
2022-12-18T01:50:36.399Z,77.40
2022-12-18T01:53:08.558Z,83.60
2022-12-18T01:55:40.894Z,67.20
2022-12-18T01:58:11.821Z,70.30
2022-12-18T02:00:42.935Z,72.30
2022-12-18T02:03:13.997Z,70.00
2022-12-18T02:05:48.549Z,70.20
2022-12-18T02:08:22.830Z,64.30
2022-12-18T02:10:59.319Z,70.30
2022-12-18T02:13:33.340Z,68.10
2022-12-18T02:16:09.142Z,65.50
2022-12-18T02:18:42.071Z,73.90
2022-12-18T02:21:17.679Z,64.50
2022-12-18T02:23:55.817Z,70.70
2022-12-18T02:26:30.074Z,70.50
2022-12-18T02:29:03.022Z,71.10
2022-12-18T02:31:41.042Z,72.00
2022-12-18T02:34:12.579Z,73.10
2022-12-18T02:36:44.649Z,66.00
2022-12-18T02:39:16.184Z,66.40
2022-12-18T02:41:57.001Z,70.60
2022-12-18T02:44:28.306Z,64.80
2022-12-18T02:46:58.937Z,73.90
2022-12-18T02:49:34.434Z,70.70
2022-12-18T02:52:08.410Z,66.00
2022-12-18T02:54:47.625Z,67.20
2022-12-18T02:57:20.964Z,65.90
2022-12-18T02:59:57.185Z,71.90
2022-12-18T03:02:29.544Z,73.90
2022-12-18T03:05:03.461Z,69.40
2022-12-18T03:07:38.002Z,67.90
2022-12-18T03:10:14.040Z,77.50
2022-12-18T03:12:46.242Z,68.20
2022-12-18T03:15:19.706Z,69.50
2022-12-18T03:17:55.152Z,70.80
2022-12-18T03:20:32.339Z,71.90
2022-12-18T03:23:06.577Z,63.80
2022-12-18T03:25:38.841Z,65.30
2022-12-18T03:28:12.572Z,63.60
2022-12-18T03:30:44.459Z,68.80
2022-12-18T03:33:19.099Z,69.40
2022-12-18T03:35:50.185Z,67.30
2022-12-18T03:38:21.760Z,72.80
2022-12-18T03:41:00.925Z,66.90
2022-12-18T03:43:37.702Z,60.10
2022-12-18T03:46:12.069Z,66.60
2022-12-18T03:48:45.743Z,67.60
2022-12-18T03:51:21.171Z,73.20
2022-12-18T03:53:56.097Z,64.10
2022-12-18T03:56:30.880Z,68.10
2022-12-18T03:59:03.944Z,64.50
2022-12-18T04:01:36.397Z,72.10
2022-12-18T04:04:08.593Z,66.20
2022-12-18T04:06:41.039Z,67.00
2022-12-18T04:09:12.219Z,74.10
2022-12-18T04:14:18.281Z,62.30
2022-12-18T04:16:52.049Z,76.70
2022-12-18T04:19:25.547Z,68.90
2022-12-18T04:21:56.683Z,70.90
2022-12-18T04:24:27.625Z,66.50
2022-12-18T04:27:07.147Z,67.40
2022-12-18T04:29:44.636Z,71.80
2022-12-18T04:32:15.214Z,62.10
2022-12-18T04:34:46.868Z,69.90
2022-12-18T04:37:17.307Z,69.90
2022-12-18T04:39:48.309Z,61.40
2022-12-18T04:42:24.367Z,70.80
2022-12-18T04:44:55.104Z,61.90
2022-12-18T04:47:25.528Z,66.40
2022-12-18T04:49:56.360Z,68.70
2022-12-18T04:52:27.398Z,64.30
2022-12-18T04:54:57.961Z,70.20
2022-12-18T04:57:28.714Z,65.20
2022-12-18T04:59:59.093Z,58.50
2022-12-18T05:02:29.795Z,66.30
2022-12-18T05:05:00.757Z,75.40
2022-12-18T05:07:31.744Z,57.20
2022-12-18T05:10:02.183Z,62.70
2022-12-18T05:12:32.967Z,67.00
2022-12-18T05:15:06.626Z,65.60
2022-12-18T05:17:37.408Z,60.20
2022-12-18T05:20:09.073Z,67.20
2022-12-18T05:22:39.784Z,66.30
2022-12-18T05:25:11.023Z,63.10
2022-12-18T05:27:42.581Z,67.40
2022-12-18T05:30:15.197Z,67.30
2022-12-18T05:32:46.029Z,68.30
2022-12-18T05:35:16.825Z,65.20
2022-12-18T05:37:47.763Z,59.50
2022-12-18T05:40:18.642Z,64.40
2022-12-18T05:42:49.893Z,61.70
2022-12-18T05:45:21.630Z,62.10
2022-12-18T05:47:52.545Z,61.30
2022-12-18T05:50:23.177Z,64.40
2022-12-18T05:52:54.534Z,69.80
2022-12-18T05:55:25.463Z,60.90
2022-12-18T05:57:56.368Z,64.60
2022-12-18T06:00:26.964Z,73.00
2022-12-18T06:02:57.933Z,78.30
2022-12-18T06:05:29.356Z,72.20
2022-12-18T06:07:59.945Z,68.70
2022-12-18T06:10:30.521Z,65.00
2022-12-18T06:13:01.226Z,66.40
2022-12-18T06:15:32.088Z,66.10
2022-12-18T06:18:03.867Z,76.00
2022-12-18T06:20:34.730Z,70.60
2022-12-18T06:23:05.568Z,74.50
2022-12-18T06:25:36.013Z,67.70
2022-12-18T06:28:06.737Z,68.70
2022-12-18T06:30:37.693Z,80.40
2022-12-18T06:33:08.835Z,67.60
2022-12-18T06:35:39.185Z,77.70
2022-12-18T06:38:10.016Z,69.10
2022-12-18T06:40:41.218Z,77.50
2022-12-18T06:43:11.843Z,78.30
2022-12-18T06:45:42.635Z,69.10
2022-12-18T06:48:13.515Z,66.10
2022-12-18T06:50:45.788Z,69.30
2022-12-18T06:53:16.695Z,76.40
2022-12-18T06:55:47.156Z,72.20
2022-12-18T06:58:18.186Z,65.90
2022-12-18T07:00:48.764Z,71.90
2022-12-18T07:03:19.483Z,68.10
2022-12-18T07:05:50.187Z,77.50
2022-12-18T07:08:20.934Z,69.60
2022-12-18T07:10:55.919Z,69.50
2022-12-18T07:13:27.880Z,65.00
2022-12-18T07:16:06.801Z,67.00
2022-12-18T07:18:39.417Z,75.60
2022-12-18T07:21:11.412Z,58.20
2022-12-18T07:23:42.599Z,69.20
2022-12-18T07:26:14.316Z,74.50
2022-12-18T07:28:45.623Z,75.40
2022-12-18T07:31:17.469Z,75.30
2022-12-18T07:33:48.633Z,77.80
2022-12-18T07:36:19.479Z,82.20
2022-12-18T07:38:50.727Z,68.80
2022-12-18T07:41:21.667Z,76.20
2022-12-18T07:43:52.488Z,73.20
2022-12-18T07:46:23.131Z,80.40
2022-12-18T07:48:54.355Z,72.60
2022-12-18T07:51:24.943Z,78.00
2022-12-18T07:53:55.824Z,77.10
2022-12-18T07:56:28.086Z,103.80
2022-12-18T07:59:00.540Z,69.50
2022-12-18T08:01:31.497Z,71.00
2022-12-18T08:04:02.622Z,88.70
2022-12-18T08:06:33.283Z,80.30
2022-12-18T08:09:04.089Z,72.40
2022-12-18T08:11:34.844Z,71.30
2022-12-18T08:14:05.984Z,75.90
2022-12-18T08:16:36.560Z,73.70
2022-12-18T08:19:07.512Z,76.60
2022-12-18T08:21:38.330Z,80.80
2022-12-18T08:24:11.399Z,70.70
2022-12-18T08:26:45.556Z,74.50
2022-12-18T08:29:23.756Z,85.50
2022-12-18T08:31:54.498Z,77.30
2022-12-18T08:34:25.041Z,76.70
2022-12-18T08:36:55.531Z,70.90
2022-12-18T08:39:26.619Z,71.60
2022-12-18T08:42:15.486Z,79.00
2022-12-18T08:44:46.239Z,81.30
2022-12-18T08:47:16.856Z,76.50
2022-12-18T08:49:47.686Z,74.10
2022-12-18T08:52:18.313Z,69.60
2022-12-18T08:54:49.032Z,77.60
2022-12-18T08:57:19.644Z,69.70
2022-12-18T08:59:50.381Z,75.00
2022-12-18T09:02:21.239Z,70.50
2022-12-18T09:04:57.131Z,73.50
2022-12-18T09:07:28.244Z,69.10
2022-12-18T09:09:58.962Z,70.90
2022-12-18T09:12:29.638Z,59.30
2022-12-18T09:15:00.301Z,65.50
2022-12-18T09:17:30.927Z,61.80
2022-12-18T09:20:01.621Z,72.00
2022-12-18T09:22:32.182Z,74.30
2022-12-18T09:25:02.760Z,68.40
2022-12-18T09:27:33.540Z,67.50
2022-12-18T09:30:05.205Z,72.40
2022-12-18T09:32:35.647Z,70.90
2022-12-18T09:35:06.613Z,63.60
2022-12-18T09:37:37.133Z,72.40
2022-12-18T09:40:08.598Z,58.50
2022-12-18T09:42:39.132Z,67.30
2022-12-18T09:45:15.539Z,71.70
2022-12-18T09:47:47.941Z,63.40
2022-12-18T09:50:24.342Z,64.80
2022-12-18T09:52:56.696Z,69.20
2022-12-18T09:55:36.585Z,65.20
2022-12-18T09:58:12.557Z,68.30
2022-12-18T10:00:47.056Z,61.10
2022-12-18T10:03:17.776Z,63.80
2022-12-18T10:05:53.510Z,61.10
2022-12-18T10:08:27.515Z,69.80
2022-12-18T10:10:59.991Z,65.70
2022-12-18T10:13:34.202Z,72.00
2022-12-18T10:16:11.185Z,68.70
2022-12-18T10:18:51.319Z,63.70
2022-12-18T10:21:23.918Z,60.80
2022-12-18T10:23:58.482Z,75.20
2022-12-18T10:26:29.068Z,63.10
2022-12-18T10:29:05.348Z,60.60
2022-12-18T10:31:36.832Z,62.30
2022-12-18T10:34:09.986Z,60.00
2022-12-18T10:36:40.647Z,58.30
2022-12-18T10:39:21.409Z,54.00
2022-12-18T10:41:53.738Z,56.60
2022-12-18T10:44:24.879Z,53.20
2022-12-18T10:46:57.143Z,46.00
2022-12-18T10:49:29.119Z,49.20
2022-12-18T10:52:16.175Z,50.20
2022-12-18T10:54:50.852Z,47.90
2022-12-18T10:57:32.975Z,39.00
2022-12-18T11:00:22.620Z,29.60
2022-12-18T11:02:53.915Z,35.10
2022-12-18T11:05:30.976Z,31.00
2022-12-18T11:08:02.651Z,31.20
2022-12-18T11:10:34.891Z,32.60
2022-12-18T11:13:19.191Z,28.50
2022-12-18T11:15:50.442Z,28.20
2022-12-18T11:18:22.972Z,32.90
2022-12-18T11:20:58.549Z,33.40
2022-12-18T11:23:29.852Z,35.60
2022-12-18T11:26:01.848Z,34.10
2022-12-18T11:28:37.158Z,31.00
2022-12-18T11:31:32.503Z,30.60
2022-12-18T11:36:57.322Z,30.60
2022-12-18T11:39:33.241Z,39.90
2022-12-18T11:42:12.982Z,39.90
2022-12-18T11:44:47.950Z,41.60
2022-12-18T11:47:23.182Z,46.20
2022-12-18T11:49:55.022Z,44.10
2022-12-18T11:52:27.378Z,47.70
2022-12-18T11:55:00.411Z,37.60
2022-12-18T11:57:36.208Z,37.70
2022-12-18T12:00:13.509Z,41.00
2022-12-18T12:03:02.939Z,37.10
2022-12-18T12:05:39.397Z,37.20
2022-12-18T12:08:14.786Z,43.30
2022-12-18T12:10:50.182Z,38.00
2022-12-18T12:13:25.690Z,36.50
2022-12-18T12:16:01.503Z,39.80
2022-12-18T12:18:37.310Z,34.40
2022-12-18T12:21:10.012Z,36.80
2022-12-18T12:23:44.752Z,41.20
2022-12-18T12:26:18.386Z,34.60
2022-12-18T12:28:54.831Z,43.20
2022-12-18T12:31:30.803Z,32.50
2022-12-18T12:34:06.543Z,33.30
2022-12-18T12:36:43.489Z,34.70
2022-12-18T12:39:16.399Z,34.70
2022-12-18T12:44:35.874Z,33.60
2022-12-18T12:47:11.046Z,39.50
2022-12-18T12:49:50.005Z,36.60
2022-12-18T12:52:29.413Z,35.20
2022-12-18T12:55:01.219Z,40.50
2022-12-18T12:57:36.833Z,31.60
2022-12-18T13:00:12.111Z,37.70
2022-12-18T13:02:47.294Z,29.10
2022-12-18T13:05:22.807Z,36.80
2022-12-18T13:07:55.861Z,34.60
2022-12-18T13:10:35.673Z,39.10
2022-12-18T13:13:09.113Z,38.20
2022-12-18T13:15:42.097Z,39.90
2022-12-18T13:18:18.111Z,36.80
2022-12-18T13:20:55.237Z,32.70
2022-12-18T13:23:33.097Z,35.90
2022-12-18T13:26:28.796Z,37.50
2022-12-18T13:29:00.574Z,38.20
2022-12-18T13:31:48.753Z,38.30
2022-12-18T13:34:29.308Z,36.00
2022-12-18T13:37:20.715Z,36.10
2022-12-18T13:39:51.544Z,34.30
2022-12-18T13:42:53.087Z,36.90
2022-12-18T13:48:39.651Z,34.60
2022-12-18T13:51:12.189Z,39.10
2022-12-18T13:53:45.462Z,36.60
2022-12-18T13:56:19.314Z,36.80
2022-12-18T13:59:04.966Z,38.80
2022-12-18T14:01:36.447Z,36.10
2022-12-18T14:04:14.311Z,45.30
2022-12-18T14:06:46.687Z,41.40
2022-12-18T14:09:21.537Z,46.30
2022-12-18T14:11:52.688Z,42.50
2022-12-18T14:14:29.479Z,47.40
2022-12-18T14:17:04.540Z,54.20
2022-12-18T14:19:38.672Z,50.10
2022-12-18T14:22:14.159Z,49.10
2022-12-18T14:24:44.688Z,56.30
2022-12-18T14:27:22.374Z,51.80
2022-12-18T14:29:52.973Z,52.10
2022-12-18T14:32:24.695Z,55.30
2022-12-18T14:34:56.455Z,52.40
2022-12-18T14:37:28.640Z,51.70
2022-12-18T14:40:03.265Z,52.30
2022-12-18T14:42:38.825Z,52.10
2022-12-18T14:45:26.972Z,53.80
2022-12-18T14:47:57.858Z,63.10
2022-12-18T14:50:28.572Z,57.40
2022-12-18T14:52:59.267Z,63.80
2022-12-18T14:55:29.896Z,54.20
2022-12-18T14:58:01.104Z,55.50
2022-12-18T15:00:33.028Z,67.40
2022-12-18T15:03:03.816Z,61.60
2022-12-18T15:05:34.893Z,63.00
2022-12-18T15:08:19.281Z,67.10
2022-12-18T15:10:50.220Z,68.50
2022-12-18T15:13:24.400Z,69.60
2022-12-18T15:15:55.157Z,60.30
2022-12-18T15:18:30.289Z,69.30
2022-12-18T15:21:02.290Z,65.30
2022-12-18T15:23:36.419Z,74.70
2022-12-18T15:26:09.814Z,63.50
2022-12-18T15:28:45.440Z,68.70
2022-12-18T15:31:26.901Z,70.20
2022-12-18T15:34:07.864Z,69.20
2022-12-18T15:36:39.378Z,63.00
2022-12-18T15:39:13.068Z,64.50
2022-12-18T15:44:33.298Z,73.20
2022-12-18T15:47:04.037Z,66.30
2022-12-18T15:49:35.023Z,65.10
2022-12-18T15:52:06.148Z,66.30
2022-12-18T15:54:54.497Z,74.40
2022-12-18T15:57:27.973Z,67.70
2022-12-18T15:59:59.494Z,67.30
2022-12-18T16:02:30.343Z,65.70
2022-12-18T16:05:01.655Z,72.30
2022-12-18T16:07:32.326Z,69.90
2022-12-18T16:10:03.461Z,63.60
2022-12-18T16:12:34.502Z,69.00
2022-12-18T16:15:06.782Z,70.80
2022-12-18T16:17:38.066Z,67.60
2022-12-18T16:20:14.121Z,65.60
2022-12-18T16:22:47.178Z,67.20
2022-12-18T16:27:47.247Z,72.70
2022-12-18T16:30:20.759Z,69.70
2022-12-18T16:32:51.669Z,74.30
2022-12-18T16:35:22.885Z,62.80
2022-12-18T16:37:53.503Z,67.10
2022-12-18T16:40:24.564Z,69.60
2022-12-18T16:42:56.407Z,74.50
2022-12-18T16:45:34.377Z,78.90
2022-12-18T16:48:05.961Z,77.40
2022-12-18T16:50:36.904Z,67.00
2022-12-18T16:53:07.637Z,70.30
2022-12-18T16:55:38.914Z,70.50
2022-12-18T16:58:10.156Z,64.70
2022-12-18T17:00:43.359Z,69.50
2022-12-18T17:03:14.418Z,75.80
2022-12-18T17:05:51.509Z,77.00
2022-12-18T17:08:23.738Z,82.80
2022-12-18T17:10:54.569Z,74.50
2022-12-18T17:13:27.749Z,69.40
2022-12-18T17:16:03.464Z,76.40
2022-12-18T17:18:34.610Z,82.50
2022-12-18T17:21:07.536Z,81.60
2022-12-18T17:23:38.868Z,79.20
2022-12-18T17:26:10.765Z,82.50
2022-12-18T17:28:42.571Z,78.20
2022-12-18T17:31:14.713Z,71.90
2022-12-18T17:33:46.498Z,78.90
2022-12-18T17:36:18.154Z,75.50
2022-12-18T17:38:53.754Z,82.70
2022-12-18T17:41:25.401Z,80.00
2022-12-18T17:43:56.904Z,74.90
2022-12-18T17:46:29.200Z,77.10
2022-12-18T17:49:01.984Z,76.70
2022-12-18T17:51:33.511Z,75.00
2022-12-18T17:54:04.406Z,83.90
2022-12-18T17:56:35.600Z,75.00
2022-12-18T17:59:07.297Z,81.40
2022-12-18T18:01:44.101Z,82.70
2022-12-18T18:04:16.026Z,77.70
2022-12-18T18:06:46.740Z,93.20
2022-12-18T18:09:17.423Z,86.60
2022-12-18T18:12:06.120Z,84.30
2022-12-18T18:14:37.186Z,80.60
2022-12-18T18:17:08.422Z,94.10
2022-12-18T18:19:39.361Z,84.80
2022-12-18T18:22:11.286Z,90.10
2022-12-18T18:24:43.781Z,77.90
2022-12-18T18:27:15.429Z,79.90
2022-12-18T18:29:46.049Z,73.40
2022-12-18T18:32:17.045Z,89.70
2022-12-18T18:34:47.978Z,85.60
2022-12-18T18:37:19.273Z,81.00
2022-12-18T18:39:50.416Z,97.30
2022-12-18T18:42:21.453Z,90.40
2022-12-18T18:44:52.030Z,91.80
2022-12-18T18:47:23.261Z,84.40
2022-12-18T18:49:54.063Z,87.10
2022-12-18T18:52:25.595Z,82.00
2022-12-18T18:55:12.129Z,84.20
2022-12-18T18:57:44.592Z,83.80
2022-12-18T19:00:16.354Z,87.60
2022-12-18T19:02:47.775Z,80.50
2022-12-18T19:05:18.750Z,82.10
2022-12-18T19:07:49.847Z,73.10
2022-12-18T19:10:20.539Z,86.60
2022-12-18T19:13:09.368Z,79.80
2022-12-18T19:15:40.620Z,80.90
2022-12-18T19:18:11.494Z,75.10
2022-12-18T19:20:42.061Z,72.90
2022-12-18T19:23:12.993Z,79.50
2022-12-18T19:25:43.644Z,74.40
2022-12-18T19:28:22.120Z,83.80
2022-12-18T19:30:57.613Z,75.20
2022-12-18T19:33:43.223Z,83.10
2022-12-18T19:36:16.766Z,75.10
2022-12-18T19:38:48.079Z,86.50
2022-12-18T19:41:19.138Z,74.70
2022-12-18T19:43:50.877Z,79.60
2022-12-18T19:46:22.825Z,77.80
2022-12-18T19:48:53.866Z,81.30
2022-12-18T19:51:25.295Z,81.50
2022-12-18T19:53:59.063Z,79.50
2022-12-18T19:56:32.536Z,79.70
2022-12-18T19:59:04.208Z,76.60
2022-12-18T20:01:34.884Z,77.60
2022-12-18T20:04:06.146Z,79.10
2022-12-18T20:06:47.110Z,78.70
2022-12-18T20:09:18.545Z,80.10
2022-12-18T20:11:50.280Z,74.60
2022-12-18T20:14:23.593Z,80.60
2022-12-18T20:19:25.570Z,81.50
2022-12-18T20:21:57.120Z,86.10
2022-12-18T20:24:28.468Z,86.80
2022-12-18T20:26:59.199Z,100.40
2022-12-18T20:29:30.899Z,95.20
2022-12-18T20:32:01.434Z,95.40
2022-12-18T20:34:33.349Z,88.10
2022-12-18T20:37:04.563Z,94.30
2022-12-18T20:39:35.942Z,96.10
2022-12-18T20:42:06.779Z,97.70
2022-12-18T20:44:37.612Z,100.40
2022-12-18T20:47:08.809Z,99.90
2022-12-18T20:49:39.862Z,97.50
2022-12-18T20:52:15.751Z,93.60
2022-12-18T20:54:46.699Z,96.50
2022-12-18T20:57:17.316Z,100.40
2022-12-18T20:59:48.856Z,98.60
2022-12-18T21:02:19.434Z,101.50
2022-12-18T21:04:50.815Z,103.10
2022-12-18T21:07:21.276Z,108.00
2022-12-18T21:09:52.239Z,100.20
2022-12-18T21:12:58.188Z,93.40
2022-12-18T21:15:31.153Z,107.50
2022-12-18T21:18:01.995Z,102.80
2022-12-18T21:20:33.347Z,97.50
2022-12-18T21:23:15.768Z,113.30
2022-12-18T21:25:50.749Z,105.30
2022-12-18T21:28:26.427Z,107.40
2022-12-18T21:30:58.236Z,97.00
2022-12-18T21:33:28.795Z,91.80
2022-12-18T21:35:59.648Z,99.00
2022-12-18T21:38:30.381Z,90.60
2022-12-18T21:41:01.423Z,118.60
2022-12-18T21:43:49.879Z,89.60
2022-12-18T21:46:21.497Z,90.30
2022-12-18T21:48:51.960Z,104.00
2022-12-18T21:51:22.785Z,88.90
2022-12-18T21:53:53.229Z,97.80
2022-12-18T21:56:24.152Z,94.40
2022-12-18T21:58:56.778Z,90.30
2022-12-18T22:01:31.478Z,87.40
2022-12-18T22:04:08.250Z,86.00
2022-12-18T22:06:39.299Z,86.50
2022-12-18T22:09:10.185Z,92.50
2022-12-18T22:11:41.093Z,84.70
2022-12-18T22:14:12.082Z,87.50
2022-12-18T22:16:43.527Z,85.80
2022-12-18T22:19:14.190Z,79.10
2022-12-18T22:21:47.280Z,99.00
2022-12-18T22:24:18.747Z,70.00
2022-12-18T22:26:51.728Z,94.40
2022-12-18T22:29:40.382Z,83.70
2022-12-18T22:32:13.873Z,77.80
2022-12-18T22:34:45.796Z,82.00
2022-12-18T22:37:17.055Z,79.30
2022-12-18T22:39:47.982Z,88.20
2022-12-18T22:42:18.935Z,82.60
2022-12-18T22:44:49.454Z,72.70
2022-12-18T22:47:20.498Z,92.20
2022-12-18T22:49:50.820Z,75.80
2022-12-18T22:52:21.763Z,76.40
2022-12-18T22:54:54.512Z,78.30
2022-12-18T22:57:26.189Z,69.10
2022-12-18T22:59:56.611Z,76.20
2022-12-18T23:02:27.497Z,76.80
2022-12-18T23:04:58.086Z,76.80
2022-12-18T23:07:29.258Z,72.30
2022-12-18T23:10:01.081Z,74.10
2022-12-18T23:12:32.212Z,73.60
2022-12-18T23:15:05.484Z,67.60
2022-12-18T23:17:36.478Z,69.20
2022-12-18T23:20:07.550Z,72.60
2022-12-18T23:22:38.579Z,65.10
2022-12-18T23:25:09.679Z,84.60
2022-12-18T23:27:40.824Z,73.30
2022-12-18T23:30:12.235Z,75.10
2022-12-18T23:32:43.036Z,71.40
2022-12-18T23:35:14.245Z,77.20
2022-12-18T23:37:59.157Z,77.20
2022-12-18T23:43:01.542Z,85.00
2022-12-18T23:45:31.825Z,78.70
2022-12-18T23:48:02.858Z,75.30
2022-12-18T23:50:35.560Z,72.90
2022-12-18T23:53:06.729Z,82.60
2022-12-18T23:55:41.125Z,74.80
2022-12-18T23:58:16.937Z,77.40
